createdAt,value
2023-10-04T00:00:47.256Z,0.00
2023-10-04T00:01:47.240Z,0.00
2023-10-04T00:02:47.310Z,0.00
2023-10-04T00:03:47.241Z,0.00
2023-10-04T00:04:47.332Z,0.00
2023-10-04T00:05:47.173Z,0.00
2023-10-04T00:06:47.146Z,0.00
2023-10-04T00:07:47.123Z,0.00
2023-10-04T00:08:47.142Z,0.00
2023-10-04T00:09:47.115Z,0.00
2023-10-04T00:10:47.076Z,0.00
2023-10-04T00:11:47.055Z,0.00
2023-10-04T00:12:47.039Z,0.00
2023-10-04T00:13:47.048Z,0.00
2023-10-04T00:14:47.004Z,0.00
2023-10-04T00:15:46.993Z,0.00
2023-10-04T00:16:46.972Z,0.00
2023-10-04T00:17:46.963Z,0.00
2023-10-04T00:18:46.994Z,0.00
2023-10-04T00:19:46.915Z,0.00
2023-10-04T00:20:46.898Z,0.00
2023-10-04T00:21:46.878Z,0.00
2023-10-04T00:22:46.886Z,0.00
2023-10-04T00:23:46.874Z,0.00
2023-10-04T00:24:46.825Z,0.00
2023-10-04T00:25:46.808Z,0.00
2023-10-04T00:26:46.809Z,0.00
2023-10-04T00:27:46.808Z,0.00
2023-10-04T00:28:46.758Z,0.00
2023-10-04T00:29:46.741Z,0.00
2023-10-04T00:30:46.726Z,0.00
2023-10-04T00:31:46.721Z,0.00
2023-10-04T00:32:46.750Z,0.00
2023-10-04T00:33:46.710Z,0.00
2023-10-04T00:34:46.655Z,0.00
2023-10-04T00:35:46.638Z,0.00
2023-10-04T00:36:46.655Z,0.00
2023-10-04T00:37:46.653Z,0.00
2023-10-04T00:38:46.587Z,0.00
2023-10-04T00:39:46.568Z,0.00
2023-10-04T00:40:46.552Z,0.00
2023-10-04T00:41:46.574Z,0.00
2023-10-04T00:42:46.515Z,0.00
2023-10-04T00:43:46.508Z,0.00
2023-10-04T00:44:46.475Z,0.00
2023-10-04T00:45:46.530Z,0.00
2023-10-04T00:46:46.475Z,0.00
2023-10-04T00:47:46.452Z,0.00
2023-10-04T00:48:46.481Z,0.00
2023-10-04T00:49:46.424Z,0.00
2023-10-04T00:50:46.403Z,0.00
2023-10-04T00:51:46.387Z,0.00
2023-10-04T00:52:46.343Z,0.00
2023-10-04T00:53:46.325Z,0.00
2023-10-04T00:54:46.308Z,0.00
2023-10-04T00:55:46.364Z,0.00
2023-10-04T00:56:46.277Z,0.00
2023-10-04T00:57:46.255Z,0.00
2023-10-04T00:58:46.238Z,0.00
2023-10-04T00:59:46.224Z,0.00
2023-10-04T01:00:46.234Z,0.00
2023-10-04T01:01:46.240Z,0.00
2023-10-04T01:02:46.214Z,0.00
2023-10-04T01:03:46.269Z,0.00
2023-10-04T01:04:46.163Z,0.00
2023-10-04T01:05:46.231Z,0.00
2023-10-04T01:06:46.126Z,0.00
2023-10-04T01:07:46.080Z,0.00
2023-10-04T01:08:46.068Z,0.00
2023-10-04T01:09:46.069Z,0.00
2023-10-04T01:10:46.031Z,0.00
2023-10-04T01:11:46.004Z,0.00
2023-10-04T01:12:47.001Z,0.00
2023-10-04T01:13:45.977Z,0.00
2023-10-04T01:14:45.981Z,0.00
2023-10-04T01:15:45.936Z,0.00
2023-10-04T01:16:45.920Z,0.00
2023-10-04T01:17:45.964Z,0.00
2023-10-04T01:18:45.990Z,0.00
2023-10-04T01:19:45.938Z,0.00
2023-10-04T01:20:45.850Z,0.00
2023-10-04T01:21:45.835Z,0.00
2023-10-04T01:22:45.816Z,0.00
2023-10-04T01:23:45.826Z,0.00
2023-10-04T01:24:45.793Z,0.00
2023-10-04T01:25:45.769Z,0.00
2023-10-04T01:26:45.753Z,0.00
2023-10-04T01:27:45.740Z,0.00
2023-10-04T01:28:45.735Z,0.00
2023-10-04T01:29:45.700Z,0.00
2023-10-04T01:30:45.678Z,0.00
2023-10-04T01:31:45.676Z,0.00
2023-10-04T01:32:45.705Z,0.00
2023-10-04T01:33:45.695Z,0.00
2023-10-04T01:34:45.606Z,0.00
2023-10-04T01:35:45.595Z,0.00
2023-10-04T01:36:45.574Z,0.00
2023-10-04T01:37:45.594Z,0.00
2023-10-04T01:38:45.540Z,0.00
2023-10-04T01:39:45.519Z,0.00
2023-10-04T01:40:45.500Z,0.00
2023-10-04T01:41:45.483Z,0.00
2023-10-04T01:42:45.551Z,0.00
2023-10-04T01:43:45.454Z,0.00
2023-10-04T01:44:45.461Z,0.00
2023-10-04T01:45:45.414Z,0.00
2023-10-04T01:46:45.428Z,0.00
2023-10-04T01:47:45.422Z,0.00
2023-10-04T01:48:45.397Z,0.00
2023-10-04T01:49:45.342Z,0.00
2023-10-04T01:50:45.338Z,0.00
2023-10-04T01:51:48.489Z,0.00
2023-10-04T01:52:46.299Z,0.00
2023-10-04T01:53:45.272Z,0.00
2023-10-04T01:54:45.271Z,0.00
2023-10-04T01:55:45.242Z,0.00
2023-10-04T01:56:45.264Z,0.00
2023-10-04T01:57:45.200Z,0.00
2023-10-04T01:58:45.185Z,0.00
2023-10-04T01:59:45.193Z,0.00
2023-10-04T02:00:45.204Z,0.00
2023-10-04T02:01:45.161Z,0.00
2023-10-04T02:02:45.163Z,0.00
2023-10-04T02:03:45.217Z,0.00
2023-10-04T02:04:45.083Z,0.00
2023-10-04T02:05:45.090Z,0.00
2023-10-04T02:06:45.046Z,0.00
2023-10-04T02:07:45.029Z,0.00
2023-10-04T02:08:45.039Z,0.00
2023-10-04T02:09:45.035Z,0.00
2023-10-04T02:10:45.001Z,0.00
2023-10-04T02:11:44.987Z,0.00
2023-10-04T02:12:45.014Z,0.00
2023-10-04T02:13:44.931Z,0.00
2023-10-04T02:14:44.945Z,0.00
2023-10-04T02:15:44.921Z,0.00
2023-10-04T02:16:44.916Z,0.00
2023-10-04T02:17:44.913Z,0.00
2023-10-04T02:18:44.914Z,0.00
2023-10-04T02:19:44.854Z,0.00
2023-10-04T02:20:44.802Z,0.00
2023-10-04T02:21:44.785Z,0.00
2023-10-04T02:22:44.763Z,0.00
2023-10-04T02:23:44.746Z,0.00
2023-10-04T02:24:44.768Z,0.00
2023-10-04T02:25:44.714Z,0.00
2023-10-04T02:26:44.691Z,0.00
2023-10-04T02:27:44.671Z,0.00
2023-10-04T02:28:44.679Z,0.00
2023-10-04T02:29:44.666Z,0.00
2023-10-04T02:30:44.678Z,0.00
2023-10-04T02:31:44.599Z,0.00
2023-10-04T02:32:44.595Z,0.00
2023-10-04T02:33:44.614Z,0.00
2023-10-04T02:34:44.543Z,0.00
2023-10-04T02:35:44.524Z,0.00
2023-10-04T02:36:44.513Z,0.00
2023-10-04T02:37:44.518Z,0.00
2023-10-04T02:38:44.495Z,0.00
2023-10-04T02:39:44.488Z,0.00
2023-10-04T02:40:44.438Z,0.00
2023-10-04T02:41:44.432Z,0.00
2023-10-04T02:42:44.437Z,0.00
2023-10-04T02:43:44.412Z,0.00
2023-10-04T02:44:44.374Z,0.00
2023-10-04T02:45:44.532Z,0.00
2023-10-04T02:46:44.349Z,0.00
2023-10-04T02:47:44.354Z,0.00
2023-10-04T02:48:44.340Z,0.00
2023-10-04T02:49:44.283Z,0.00
2023-10-04T02:50:44.268Z,0.00
2023-10-04T02:51:44.265Z,0.00
2023-10-04T02:52:44.249Z,0.00
2023-10-04T02:53:45.222Z,0.00
2023-10-04T02:54:44.204Z,0.00
2023-10-04T02:55:44.191Z,0.00
2023-10-04T02:56:44.191Z,0.00
2023-10-04T02:57:44.173Z,0.00
2023-10-04T02:58:44.126Z,0.00
2023-10-04T02:59:44.113Z,0.00
2023-10-04T03:00:44.180Z,0.00
2023-10-04T03:01:44.105Z,0.00
2023-10-04T03:02:44.116Z,0.00
2023-10-04T03:03:44.091Z,0.00
2023-10-04T03:04:44.026Z,0.00
2023-10-04T03:05:44.012Z,0.00
2023-10-04T03:06:44.046Z,0.00
2023-10-04T03:07:43.972Z,0.00
2023-10-04T03:08:43.954Z,0.00
2023-10-04T03:09:43.985Z,0.00
2023-10-04T03:10:43.945Z,0.00
2023-10-04T03:11:43.900Z,0.00
2023-10-04T03:12:43.880Z,0.00
2023-10-04T03:13:43.875Z,0.00
2023-10-04T03:14:43.879Z,0.00
2023-10-04T03:15:43.877Z,0.00
2023-10-04T03:16:43.845Z,0.00
2023-10-04T03:17:43.860Z,0.00
2023-10-04T03:18:43.895Z,0.00
2023-10-04T03:19:43.803Z,0.00
2023-10-04T03:20:43.765Z,0.00
2023-10-04T03:21:43.740Z,0.00
2023-10-04T03:22:43.706Z,0.00
2023-10-04T03:23:43.684Z,0.00
2023-10-04T03:24:43.747Z,0.00
2023-10-04T03:25:43.685Z,0.00
2023-10-04T03:26:43.635Z,0.00
2023-10-04T03:27:43.622Z,0.00
2023-10-04T03:28:43.600Z,0.00
2023-10-04T03:29:43.606Z,0.00
2023-10-04T03:30:43.640Z,0.00
2023-10-04T03:31:43.553Z,0.00
2023-10-04T03:32:43.566Z,0.00
2023-10-04T03:33:43.570Z,0.00
2023-10-04T03:34:43.531Z,0.00
2023-10-04T03:35:43.484Z,0.00
2023-10-04T03:36:43.509Z,0.00
2023-10-04T03:37:43.442Z,0.00
2023-10-04T03:38:43.481Z,0.00
2023-10-04T03:39:43.437Z,0.00
2023-10-04T03:40:43.395Z,0.00
2023-10-04T03:41:43.514Z,0.00
2023-10-04T03:42:43.416Z,0.00
2023-10-04T03:43:43.373Z,0.00
2023-10-04T03:44:43.332Z,0.00
2023-10-04T03:45:43.323Z,0.00
2023-10-04T03:46:43.298Z,0.00
2023-10-04T03:47:43.292Z,0.00
2023-10-04T03:48:43.360Z,0.00
2023-10-04T03:49:43.239Z,0.00
2023-10-04T03:50:43.218Z,0.00
2023-10-04T03:51:43.312Z,0.00
2023-10-04T03:52:43.212Z,0.00
2023-10-04T03:53:43.225Z,0.00
2023-10-04T03:54:43.192Z,0.00
2023-10-04T03:55:43.133Z,0.00
2023-10-04T03:56:43.137Z,0.00
2023-10-04T03:57:43.185Z,0.00
2023-10-04T03:58:43.089Z,0.00
2023-10-04T03:59:43.068Z,0.00
2023-10-04T04:00:43.129Z,0.00
2023-10-04T04:01:43.060Z,0.00
2023-10-04T04:02:43.114Z,0.00
2023-10-04T04:03:43.204Z,0.00
2023-10-04T04:04:43.161Z,0.00
2023-10-04T04:05:43.059Z,0.00
2023-10-04T04:06:43.043Z,0.00
2023-10-04T04:07:42.953Z,0.00
2023-10-04T04:08:42.914Z,0.00
2023-10-04T04:09:42.970Z,0.00
2023-10-04T04:10:42.886Z,0.00
2023-10-04T04:11:42.907Z,0.00
2023-10-04T04:12:42.899Z,0.00
2023-10-04T04:13:42.835Z,0.00
2023-10-04T04:14:42.813Z,0.00
2023-10-04T04:15:42.847Z,0.00
2023-10-04T04:16:42.832Z,0.00
2023-10-04T04:17:42.793Z,0.00
2023-10-04T04:18:42.798Z,0.00
2023-10-04T04:19:42.735Z,0.00
2023-10-04T04:20:42.760Z,0.00
2023-10-04T04:21:42.749Z,0.00
2023-10-04T04:22:42.689Z,0.00
2023-10-04T04:23:42.657Z,0.00
2023-10-04T04:24:42.714Z,0.00
2023-10-04T04:25:42.679Z,0.00
2023-10-04T04:26:42.610Z,0.00
2023-10-04T04:27:42.619Z,0.00
2023-10-04T04:28:42.561Z,0.00
2023-10-04T04:29:43.556Z,0.00
2023-10-04T04:30:42.815Z,0.00
2023-10-04T04:31:42.659Z,0.00
2023-10-04T04:32:42.514Z,0.00
2023-10-04T04:33:42.508Z,0.00
2023-10-04T04:34:42.537Z,0.00
2023-10-04T04:35:42.472Z,0.00
2023-10-04T04:36:42.462Z,0.00
2023-10-04T04:37:42.415Z,0.00
2023-10-04T04:38:42.398Z,0.00
2023-10-04T04:39:42.451Z,0.00
2023-10-04T04:40:42.389Z,0.00
2023-10-04T04:41:42.356Z,0.00
2023-10-04T04:42:42.382Z,0.00
2023-10-04T04:43:42.316Z,0.00
2023-10-04T04:44:42.327Z,0.00
2023-10-04T04:45:42.305Z,0.00
2023-10-04T04:46:42.284Z,0.00
2023-10-04T04:47:42.270Z,0.00
2023-10-04T04:48:42.289Z,0.00
2023-10-04T04:49:42.258Z,0.00
2023-10-04T04:50:42.199Z,0.00
2023-10-04T04:51:42.278Z,0.00
2023-10-04T04:52:42.161Z,0.00
2023-10-04T04:53:42.199Z,0.00
2023-10-04T04:54:42.173Z,0.00
2023-10-04T04:55:42.111Z,0.00
2023-10-04T04:56:42.104Z,0.00
2023-10-04T04:57:42.115Z,0.00
2023-10-04T04:58:42.082Z,0.00
2023-10-04T04:59:42.038Z,0.00
2023-10-04T05:00:42.080Z,0.00
2023-10-04T05:01:42.171Z,4.00
2023-10-04T05:02:41.996Z,0.00
2023-10-04T05:03:42.082Z,4.00
2023-10-04T05:04:41.995Z,0.00
2023-10-04T05:05:41.942Z,4.00
2023-10-04T05:06:41.949Z,4.00
2023-10-04T05:07:41.927Z,8.00
2023-10-04T05:08:41.911Z,4.00
2023-10-04T05:09:41.922Z,8.00
2023-10-04T05:10:41.856Z,8.00
2023-10-04T05:11:41.837Z,12.00
2023-10-04T05:12:41.890Z,16.00
2023-10-04T05:13:41.805Z,16.00
2023-10-04T05:14:41.787Z,20.00
2023-10-04T05:15:41.812Z,24.00
2023-10-04T05:16:41.804Z,24.00
2023-10-04T05:17:41.794Z,28.00
2023-10-04T05:18:41.735Z,28.00
2023-10-04T05:19:41.697Z,32.00
2023-10-04T05:20:41.685Z,36.00
2023-10-04T05:21:41.817Z,40.00
2023-10-04T05:22:41.650Z,44.00
2023-10-04T05:23:41.636Z,48.00
2023-10-04T05:24:41.654Z,56.00
2023-10-04T05:25:41.592Z,64.00
2023-10-04T05:26:41.603Z,64.00
2023-10-04T05:27:41.595Z,72.00
2023-10-04T05:28:41.544Z,80.00
2023-10-04T05:29:41.528Z,88.00
2023-10-04T05:30:41.586Z,92.00
2023-10-04T05:31:41.694Z,100.00
2023-10-04T05:32:41.583Z,104.00
2023-10-04T05:33:41.560Z,112.00
2023-10-04T05:34:41.446Z,120.00
2023-10-04T05:35:41.460Z,132.00
2023-10-04T05:36:41.518Z,140.00
2023-10-04T05:37:41.411Z,152.00
2023-10-04T05:38:41.373Z,168.00
2023-10-04T05:39:41.404Z,184.00
2023-10-04T05:40:41.338Z,212.00
2023-10-04T05:41:41.372Z,236.00
2023-10-04T05:42:41.357Z,256.00
2023-10-04T05:43:41.277Z,280.00
2023-10-04T05:44:41.286Z,312.00
2023-10-04T05:45:41.328Z,352.00
2023-10-04T05:46:41.277Z,400.00
2023-10-04T05:47:41.244Z,456.00
2023-10-04T05:48:41.224Z,500.00
2023-10-04T05:49:41.201Z,548.00
2023-10-04T05:50:41.152Z,600.00
2023-10-04T05:51:41.209Z,648.00
2023-10-04T05:52:41.125Z,652.00
2023-10-04T05:53:41.098Z,620.00
2023-10-04T05:54:41.185Z,556.00
2023-10-04T05:55:41.102Z,504.00
2023-10-04T05:56:41.229Z,408.00
2023-10-04T05:57:41.059Z,304.00
2023-10-04T05:58:41.013Z,252.00
2023-10-04T05:59:41.021Z,256.00
2023-10-04T06:00:41.020Z,332.00
2023-10-04T06:01:41.010Z,492.00
2023-10-04T06:02:40.947Z,716.00
2023-10-04T06:03:40.970Z,900.00
2023-10-04T06:04:40.989Z,1164.00
2023-10-04T06:05:40.914Z,1396.00
2023-10-04T06:06:40.916Z,1508.00
2023-10-04T06:07:40.855Z,1348.00
2023-10-04T06:08:40.867Z,1012.00
2023-10-04T06:09:40.876Z,804.00
2023-10-04T06:10:40.809Z,548.00
2023-10-04T06:11:40.785Z,444.00
2023-10-04T06:12:40.837Z,420.00
2023-10-04T06:13:40.750Z,428.00
2023-10-04T06:14:40.753Z,440.00
2023-10-04T06:15:40.795Z,432.00
2023-10-04T06:16:40.778Z,468.00
2023-10-04T06:17:40.719Z,504.00
2023-10-04T06:18:40.705Z,532.00
2023-10-04T06:19:40.646Z,532.00
2023-10-04T06:20:40.621Z,536.00
2023-10-04T06:21:40.645Z,432.00
2023-10-04T06:22:40.611Z,372.00
2023-10-04T06:23:40.573Z,336.00
2023-10-04T06:24:40.617Z,332.00
2023-10-04T06:25:40.540Z,432.00
2023-10-04T06:26:40.556Z,572.00
2023-10-04T06:27:40.679Z,888.00
2023-10-04T06:28:40.477Z,1084.00
2023-10-04T06:29:40.461Z,1216.00
2023-10-04T06:30:40.496Z,1136.00
2023-10-04T06:31:40.486Z,1020.00
2023-10-04T06:32:40.429Z,1340.00
2023-10-04T06:33:40.442Z,1616.00
2023-10-04T06:34:40.376Z,1816.00
2023-10-04T06:35:40.383Z,1740.00
2023-10-04T06:36:40.402Z,2072.00
2023-10-04T06:37:40.345Z,2820.00
2023-10-04T06:38:40.303Z,3268.00
2023-10-04T06:39:40.324Z,3492.00
2023-10-04T06:40:40.299Z,4120.00
2023-10-04T06:41:40.276Z,4976.00
2023-10-04T06:42:40.261Z,4412.00
2023-10-04T06:43:40.213Z,4036.00
2023-10-04T06:44:40.200Z,4572.00
2023-10-04T06:45:40.264Z,4808.00
2023-10-04T06:46:40.244Z,4844.00
2023-10-04T06:47:40.180Z,5232.00
2023-10-04T06:48:42.758Z,5632.00
2023-10-04T06:49:40.109Z,6324.00
2023-10-04T06:50:40.909Z,5804.00
2023-10-04T06:51:40.127Z,5184.00
2023-10-04T06:52:40.063Z,5976.00
2023-10-04T06:53:40.046Z,6944.00
2023-10-04T06:54:40.090Z,7664.00
2023-10-04T06:55:40.468Z,8552.00
2023-10-04T06:56:39.990Z,10420.00
2023-10-04T06:57:39.991Z,13128.00
2023-10-04T06:58:39.956Z,13264.00
2023-10-04T06:59:39.967Z,15104.00
2023-10-04T07:00:40.007Z,27808.00
2023-10-04T07:01:39.930Z,17408.00
2023-10-04T07:02:39.919Z,15424.00
2023-10-04T07:03:40.015Z,15264.00
2023-10-04T07:04:39.898Z,14288.00
2023-10-04T07:05:39.865Z,15036.00
2023-10-04T07:06:39.858Z,14840.00
2023-10-04T07:07:39.792Z,14848.00
2023-10-04T07:08:39.774Z,14008.00
2023-10-04T07:09:39.796Z,14648.00
2023-10-04T07:10:39.757Z,17248.00
2023-10-04T07:11:39.714Z,16960.00
2023-10-04T07:12:39.807Z,18368.00
2023-10-04T07:13:39.699Z,15744.00
2023-10-04T07:14:39.680Z,14348.00
2023-10-04T07:15:39.715Z,15292.00
2023-10-04T07:16:39.675Z,29664.00
2023-10-04T07:17:39.613Z,33184.00
2023-10-04T07:18:39.620Z,14380.00
2023-10-04T07:19:39.553Z,14652.00
2023-10-04T07:20:39.545Z,16032.00
2023-10-04T07:21:39.539Z,7208.00
2023-10-04T07:22:39.507Z,6512.00
2023-10-04T07:23:43.206Z,7904.00
2023-10-04T07:24:40.496Z,8712.00
2023-10-04T07:25:39.706Z,7136.00
2023-10-04T07:26:39.405Z,7568.00
2023-10-04T07:27:39.430Z,9340.00
2023-10-04T07:28:39.359Z,18048.00
2023-10-04T07:29:39.353Z,24480.00
2023-10-04T07:30:39.347Z,38656.00
2023-10-04T07:31:39.294Z,25056.00
2023-10-04T07:32:39.306Z,15936.00
2023-10-04T07:33:39.337Z,18016.00
2023-10-04T07:34:39.224Z,28544.00
2023-10-04T07:35:39.293Z,30048.00
2023-10-04T07:36:39.193Z,42400.00
2023-10-04T07:37:39.184Z,19872.00
2023-10-04T07:38:39.145Z,18304.00
2023-10-04T07:39:39.156Z,29504.00
2023-10-04T07:40:39.095Z,44160.00
2023-10-04T07:41:39.123Z,41696.00
2023-10-04T07:42:39.113Z,28160.00
2023-10-04T07:43:39.033Z,21440.00
2023-10-04T07:44:39.017Z,17760.00
2023-10-04T07:45:39.048Z,17920.00
2023-10-04T07:46:39.336Z,23136.00
2023-10-04T07:47:39.985Z,10164.00
2023-10-04T07:48:38.984Z,9216.00
2023-10-04T07:49:38.893Z,9188.00
2023-10-04T07:50:38.896Z,8800.00
2023-10-04T07:51:38.914Z,8576.00
2023-10-04T07:52:38.834Z,8692.00
2023-10-04T07:53:40.068Z,9384.00
2023-10-04T07:54:38.800Z,9884.00
2023-10-04T07:55:38.790Z,10916.00
2023-10-04T07:56:38.757Z,12224.00
2023-10-04T07:57:38.766Z,16256.00
2023-10-04T07:58:38.706Z,13672.00
2023-10-04T07:59:38.678Z,14560.00
2023-10-04T08:00:39.158Z,25664.00
2023-10-04T08:01:38.697Z,17664.00
2023-10-04T08:02:38.671Z,17760.00
2023-10-04T08:03:38.698Z,19936.00
2023-10-04T08:04:38.671Z,15484.00
2023-10-04T08:05:38.575Z,18976.00
2023-10-04T08:06:38.562Z,39520.00
2023-10-04T08:07:38.522Z,47424.00
2023-10-04T08:08:38.490Z,36800.00
2023-10-04T08:09:38.520Z,52512.00
2023-10-04T08:10:38.507Z,51968.00
2023-10-04T08:11:38.408Z,28480.00
2023-10-04T08:12:39.442Z,20352.00
2023-10-04T08:13:38.372Z,14284.00
2023-10-04T08:14:38.380Z,13748.00
2023-10-04T08:15:38.689Z,14768.00
2023-10-04T08:16:38.453Z,15068.00
2023-10-04T08:17:38.361Z,22624.00
2023-10-04T08:18:38.432Z,48256.00
2023-10-04T08:19:38.333Z,52512.00
2023-10-04T08:20:38.675Z,52416.00
2023-10-04T08:21:39.097Z,49696.00
2023-10-04T08:22:38.190Z,48512.00
2023-10-04T08:23:38.216Z,52064.00
2023-10-04T08:24:38.186Z,55008.00
2023-10-04T08:25:38.131Z,55840.00
2023-10-04T08:26:38.113Z,55104.00
2023-10-04T08:27:38.147Z,57056.00
2023-10-04T08:28:38.100Z,23520.00
2023-10-04T08:29:38.056Z,55680.00
2023-10-04T08:30:38.091Z,38848.00
2023-10-04T08:31:38.102Z,53248.00
2023-10-04T08:32:38.072Z,52864.00
2023-10-04T08:33:38.087Z,52480.00
2023-10-04T08:34:37.962Z,54272.00
2023-10-04T08:35:38.082Z,58848.00
2023-10-04T08:36:38.015Z,56064.00
2023-10-04T08:37:37.932Z,58688.00
2023-10-04T08:38:37.910Z,55168.00
2023-10-04T08:39:37.868Z,54048.00
2023-10-04T08:40:37.847Z,56512.00
2023-10-04T08:41:37.830Z,60192.00
2023-10-04T08:42:37.851Z,52992.00
2023-10-04T08:43:37.798Z,60000.00
2023-10-04T08:44:37.781Z,50272.00
2023-10-04T08:45:37.921Z,37760.00
2023-10-04T08:46:37.857Z,33216.00
2023-10-04T08:47:37.786Z,36960.00
2023-10-04T08:48:37.893Z,28096.00
2023-10-04T08:49:37.759Z,48160.00
2023-10-04T08:50:37.667Z,55232.00
2023-10-04T08:51:37.754Z,51840.00
2023-10-04T08:52:37.626Z,17248.00
2023-10-04T08:53:37.610Z,12656.00
2023-10-04T08:54:37.742Z,12172.00
2023-10-04T08:55:37.570Z,9540.00
2023-10-04T08:56:37.580Z,8320.00
2023-10-04T08:57:37.591Z,7816.00
2023-10-04T08:58:37.515Z,6832.00
2023-10-04T08:59:37.503Z,8464.00
2023-10-04T09:00:37.565Z,39456.00
2023-10-04T09:01:37.527Z,7244.00
2023-10-04T09:02:37.468Z,6236.00
2023-10-04T09:03:37.609Z,6712.00
2023-10-04T09:04:37.768Z,8300.00
2023-10-04T09:05:37.422Z,11696.00
2023-10-04T09:06:37.389Z,12000.00
2023-10-04T09:07:37.349Z,9792.00
2023-10-04T09:08:37.331Z,7412.00
2023-10-04T09:09:37.316Z,7904.00
2023-10-04T09:10:37.342Z,10684.00
2023-10-04T09:11:37.967Z,21856.00
2023-10-04T09:12:51.925Z,13884.00
2023-10-04T09:13:39.232Z,13528.00
2023-10-04T09:14:37.255Z,14416.00
2023-10-04T09:15:37.296Z,13236.00
2023-10-04T09:16:37.196Z,10656.00
2023-10-04T09:17:37.167Z,8756.00
2023-10-04T09:18:37.174Z,8884.00
2023-10-04T09:19:37.171Z,8224.00
2023-10-04T09:20:37.132Z,8852.00
2023-10-04T09:21:37.151Z,9548.00
2023-10-04T09:22:37.081Z,18080.00
2023-10-04T09:23:38.756Z,12400.00
2023-10-04T09:24:37.159Z,11660.00
2023-10-04T09:25:37.008Z,10380.00
2023-10-04T09:26:36.989Z,10260.00
2023-10-04T09:27:37.115Z,7712.00
2023-10-04T09:28:36.987Z,7220.00
2023-10-04T09:29:36.985Z,8880.00
2023-10-04T09:30:36.951Z,9160.00
2023-10-04T09:31:36.964Z,47360.00
2023-10-04T09:32:37.127Z,45088.00
2023-10-04T09:33:36.932Z,13800.00
2023-10-04T09:34:36.863Z,73312.00
2023-10-04T09:35:36.825Z,90144.00
2023-10-04T09:36:36.820Z,14672.00
2023-10-04T09:37:36.787Z,11472.00
2023-10-04T09:38:36.995Z,9148.00
2023-10-04T09:39:36.754Z,8104.00
2023-10-04T09:40:36.722Z,7764.00
2023-10-04T09:41:36.701Z,7736.00
2023-10-04T09:42:37.460Z,6792.00
2023-10-04T09:43:36.774Z,6216.00
2023-10-04T09:44:36.648Z,6996.00
2023-10-04T09:45:36.672Z,18400.00
2023-10-04T09:46:36.637Z,14912.00
2023-10-04T09:47:36.622Z,18784.00
2023-10-04T09:48:36.586Z,11712.00
2023-10-04T09:49:36.556Z,10344.00
2023-10-04T09:50:36.529Z,9652.00
2023-10-04T09:51:36.571Z,8948.00
2023-10-04T09:52:36.518Z,8312.00
2023-10-04T09:53:36.475Z,8344.00
2023-10-04T09:54:36.562Z,9208.00
2023-10-04T09:55:36.441Z,9500.00
2023-10-04T09:56:36.444Z,8964.00
2023-10-04T09:57:36.433Z,8476.00
2023-10-04T09:58:36.391Z,9740.00
2023-10-04T09:59:36.364Z,9860.00
2023-10-04T10:00:36.397Z,13572.00
2023-10-04T10:01:36.377Z,29984.00
2023-10-04T10:02:36.429Z,11996.00
2023-10-04T10:03:36.304Z,9872.00
2023-10-04T10:04:36.263Z,17920.00
2023-10-04T10:05:36.303Z,10348.00
2023-10-04T10:06:36.271Z,8868.00
2023-10-04T10:07:36.207Z,9572.00
2023-10-04T10:08:36.188Z,10760.00
2023-10-04T10:09:49.032Z,12396.00
2023-10-04T10:10:38.232Z,9892.00
2023-10-04T10:11:36.158Z,10836.00
2023-10-04T10:12:36.121Z,9672.00
2023-10-04T10:13:36.092Z,8488.00
2023-10-04T10:14:36.069Z,7792.00
2023-10-04T10:15:37.057Z,7544.00
2023-10-04T10:16:36.093Z,7964.00
2023-10-04T10:17:36.050Z,8936.00
2023-10-04T10:18:36.003Z,9988.00
2023-10-04T10:19:35.965Z,10728.00
2023-10-04T10:20:35.975Z,9808.00
2023-10-04T10:21:35.959Z,8924.00
2023-10-04T10:22:35.912Z,8184.00
2023-10-04T10:23:35.897Z,8400.00
2023-10-04T10:24:35.929Z,9244.00
2023-10-04T10:25:35.871Z,9200.00
2023-10-04T10:26:35.823Z,9336.00
2023-10-04T10:27:35.829Z,9024.00
2023-10-04T10:28:35.797Z,8640.00
2023-10-04T10:29:36.105Z,8464.00
2023-10-04T10:30:36.134Z,8244.00
2023-10-04T10:31:36.804Z,8012.00
2023-10-04T10:32:36.812Z,7780.00
2023-10-04T10:33:35.822Z,8300.00
2023-10-04T10:34:35.862Z,9156.00
2023-10-04T10:35:35.643Z,9760.00
2023-10-04T10:36:35.639Z,9768.00
2023-10-04T10:37:35.608Z,9496.00
2023-10-04T10:38:35.603Z,8768.00
2023-10-04T10:39:35.602Z,8288.00
2023-10-04T10:40:35.537Z,9364.00
2023-10-04T10:41:35.523Z,10312.00
2023-10-04T10:42:35.541Z,9988.00
2023-10-04T10:43:35.503Z,10760.00
2023-10-04T10:44:35.454Z,10928.00
2023-10-04T10:45:35.481Z,10416.00
2023-10-04T10:46:36.619Z,11012.00
2023-10-04T10:47:43.180Z,10548.00
2023-10-04T10:48:37.511Z,10472.00
2023-10-04T10:49:35.355Z,10560.00
2023-10-04T10:50:35.374Z,10452.00
2023-10-04T10:51:35.339Z,11124.00
2023-10-04T10:52:35.461Z,11928.00
2023-10-04T10:53:36.282Z,12056.00
2023-10-04T10:54:35.315Z,11520.00
2023-10-04T10:55:35.318Z,10848.00
2023-10-04T10:56:35.226Z,10176.00
2023-10-04T10:57:35.319Z,9540.00
2023-10-04T10:58:35.203Z,9052.00
2023-10-04T10:59:35.175Z,8856.00
2023-10-04T11:00:35.247Z,9436.00
2023-10-04T11:01:35.197Z,9792.00
2023-10-04T11:02:35.210Z,10284.00
2023-10-04T11:03:35.207Z,10132.00
2023-10-04T11:04:35.060Z,10680.00
2023-10-04T11:05:35.042Z,10140.00
2023-10-04T11:06:35.065Z,9836.00
2023-10-04T11:07:35.033Z,9992.00
2023-10-04T11:08:35.053Z,9952.00
2023-10-04T11:09:43.533Z,9788.00
2023-10-04T11:10:36.968Z,9172.00
2023-10-04T11:11:34.985Z,10068.00
2023-10-04T11:12:34.928Z,9504.00
2023-10-04T11:13:34.892Z,9876.00
2023-10-04T11:14:34.859Z,9444.00
2023-10-04T11:15:34.869Z,9152.00
2023-10-04T11:16:34.874Z,9188.00
2023-10-04T11:17:34.806Z,9208.00
2023-10-04T11:18:34.805Z,9344.00
2023-10-04T11:19:34.753Z,9612.00
2023-10-04T11:20:34.756Z,10228.00
2023-10-04T11:21:34.753Z,9516.00
2023-10-04T11:22:34.696Z,9044.00
2023-10-04T11:23:34.681Z,8760.00
2023-10-04T11:24:34.690Z,9416.00
2023-10-04T11:25:34.669Z,8888.00
2023-10-04T11:26:34.619Z,9664.00
2023-10-04T11:27:34.658Z,9796.00
2023-10-04T11:28:34.584Z,9616.00
2023-10-04T11:29:34.575Z,9104.00
2023-10-04T11:30:34.891Z,8796.00
2023-10-04T11:31:45.394Z,8364.00
2023-10-04T11:32:36.520Z,7964.00
2023-10-04T11:33:34.755Z,7788.00
2023-10-04T11:34:34.492Z,7588.00
2023-10-04T11:35:34.540Z,7532.00
2023-10-04T11:36:34.448Z,7600.00
2023-10-04T11:37:34.399Z,7572.00
2023-10-04T11:38:35.382Z,7492.00
2023-10-04T11:39:34.472Z,7452.00
2023-10-04T11:40:34.341Z,7324.00
2023-10-04T11:41:34.325Z,7300.00
2023-10-04T11:42:34.373Z,7444.00
2023-10-04T11:43:34.336Z,7272.00
2023-10-04T11:44:34.375Z,7100.00
2023-10-04T11:45:34.312Z,6968.00
2023-10-04T11:46:34.271Z,7424.00
2023-10-04T11:47:34.217Z,7944.00
2023-10-04T11:48:34.832Z,8360.00
2023-10-04T11:49:35.217Z,8748.00
2023-10-04T11:50:34.135Z,9012.00
2023-10-04T11:51:34.162Z,9308.00
2023-10-04T11:52:34.099Z,9136.00
2023-10-04T11:53:34.430Z,9908.00
2023-10-04T11:54:34.135Z,10476.00
2023-10-04T11:55:34.039Z,10896.00
2023-10-04T11:56:34.013Z,10372.00
2023-10-04T11:57:35.001Z,11004.00
2023-10-04T11:58:34.011Z,10796.00
2023-10-04T11:59:33.961Z,9928.00
2023-10-04T12:00:33.982Z,9844.00
2023-10-04T12:01:33.937Z,9692.00
2023-10-04T12:02:33.957Z,9872.00
2023-10-04T12:03:33.978Z,9696.00
2023-10-04T12:04:33.933Z,9720.00
2023-10-04T12:05:33.846Z,9696.00
2023-10-04T12:06:33.837Z,9476.00
2023-10-04T12:07:33.851Z,9248.00
2023-10-04T12:08:33.780Z,8688.00
2023-10-04T12:09:33.775Z,8008.00
2023-10-04T12:10:33.748Z,7372.00
2023-10-04T12:11:33.721Z,6892.00
2023-10-04T12:12:33.799Z,6828.00
2023-10-04T12:13:33.685Z,6868.00
2023-10-04T12:14:33.759Z,6612.00
2023-10-04T12:15:33.666Z,6648.00
2023-10-04T12:16:33.663Z,7268.00
2023-10-04T12:17:33.701Z,8232.00
2023-10-04T12:18:33.657Z,8164.00
2023-10-04T12:19:33.566Z,8108.00
2023-10-04T12:20:33.543Z,8556.00
2023-10-04T12:21:33.567Z,8832.00
2023-10-04T12:22:33.736Z,9004.00
2023-10-04T12:23:33.496Z,9272.00
2023-10-04T12:24:33.487Z,9128.00
2023-10-04T12:25:33.443Z,9164.00
2023-10-04T12:26:33.455Z,9400.00
2023-10-04T12:27:33.418Z,9588.00
2023-10-04T12:28:33.383Z,9672.00
2023-10-04T12:29:34.392Z,9692.00
2023-10-04T12:30:33.410Z,9632.00
2023-10-04T12:31:33.405Z,9504.00